Time;durP1;ratioP1;P1;durP2;ratioP2;P2;SDS_P1;SDS_P2;PMS_P1;PMS_P2;Temp;Humidity;BMP_temperature;BMP_pressure;BME280_temperature;BME280_humidity;BME280_pressure;Samples;Min_cycle;Max_cycle;Signal;HPM_P1;HPM_P2
2019/06/04 00:00:21;;;;;;;7.1;6.4;;;;;;;16.2;77.71191;95171.26;;;;
2019/06/04 00:01:23;;;;;;;7.1;6.4;;;;;;;16.2;77.71191;95171.26;;;;
2019/06/04 00:02:24;;;;;;;7.1;6.4;;;;;;;16.2;77.71191;95171.26;;;;
2019/06/04 00:03:25;;;;;;;7.1;6.4;;;;;;;16.2;77.71191;95171.26;;;;
2019/06/04 00:04:26;;;;;;;7.1;6.4;;;;;;;16.2;77.71191;95171.26;;;;
2019/06/04 00:05:27;;;;;;;7.1;6.4;;;;;;;16.2;77.71191;95171.26;;;;
2019/06/04 00:06:28;;;;;;;7.1;6.4;;;;;;;16.2;77.71191;95171.26;;;;
2019/06/04 00:07:29;;;;;;;7.1;6.4;;;;;;;16.2;77.71191;95171.26;;;;
2019/06/04 00:08:30;;;;;;;7.1;6.4;;;;;;;16.2;77.71191;95171.26;;;;
2019/06/04 00:09:31;;;;;;;7.65;6.95;;;;;;;15.73;79.25098;95165.25;;;;
2019/06/04 00:10:32;;;;;;;7.65;6.95;;;;;;;15.73;79.25098;95165.25;;;;
2019/06/04 00:11:34;;;;;;;7.65;6.95;;;;;;;15.73;79.25098;95165.25;;;;
2019/06/04 00:12:35;;;;;;;7.65;6.95;;;;;;;15.73;79.25098;95165.25;;;;
2019/06/04 00:13:36;;;;;;;7.65;6.95;;;;;;;15.73;79.25098;95165.25;;;;
2019/06/04 00:14:37;;;;;;;7.65;6.95;;;;;;;15.73;79.25098;95165.25;;;;
2019/06/04 00:15:38;;;;;;;7.65;6.95;;;;;;;15.73;79.25098;95165.25;;;;
2019/06/04 00:16:39;;;;;;;7.65;6.95;;;;;;;15.73;79.25098;95165.25;;;;
2019/06/04 00:17:40;;;;;;;7.65;6.95;;;;;;;15.73;79.25098;95165.25;;;;
2019/06/04 00:18:41;;;;;;;7.65;6.95;;;;;;;15.73;79.25098;95165.25;;;;
2019/06/04 00:19:42;;;;;;;7.249999;6.499999;;;;;;;15.52;80.20605;95154.06;;;;
2019/06/04 00:20:43;;;;;;;7.249999;6.499999;;;;;;;15.52;80.20605;95154.06;;;;
2019/06/04 00:21:44;;;;;;;7.249999;6.499999;;;;;;;15.52;80.20605;95154.06;;;;
2019/06/04 00:22:45;;;;;;;7.249999;6.499999;;;;;;;15.52;80.20605;95154.06;;;;
2019/06/04 00:23:46;;;;;;;7.249999;6.499999;;;;;;;15.52;80.20605;95154.06;;;;
2019/06/04 00:24:47;;;;;;;7.249999;6.499999;;;;;;;15.52;80.20605;95154.06;;;;
2019/06/04 00:25:48;;;;;;;7.249999;6.499999;;;;;;;15.52;80.20605;95154.06;;;;
2019/06/04 00:26:49;;;;;;;7.249999;6.499999;;;;;;;15.52;80.20605;95154.06;;;;
2019/06/04 00:27:50;;;;;;;7.249999;6.499999;;;;;;;15.52;80.20605;95154.06;;;;
2019/06/04 00:28:51;;;;;;;7.249999;6.499999;;;;;;;15.52;80.20605;95154.06;;;;
2019/06/04 00:29:52;;;;;;;7.249999;6.499999;;;;;;;15.52;80.20605;95154.06;;;;
2019/06/04 00:30:53;;;;;;;7.349999;6.649999;;;;;;;15.25;81.02246;95137.52;;;;
2019/06/04 00:31:55;;;;;;;7.349999;6.649999;;;;;;;15.25;81.02246;95137.52;;;;
2019/06/04 00:32:56;;;;;;;7.349999;6.649999;;;;;;;15.25;81.02246;95137.52;;;;
2019/06/04 00:33:57;;;;;;;7.349999;6.649999;;;;;;;15.25;81.02246;95137.52;;;;
2019/06/04 00:34:58;;;;;;;7.349999;6.649999;;;;;;;15.25;81.02246;95137.52;;;;
2019/06/04 00:35:59;;;;;;;7.349999;6.649999;;;;;;;15.25;81.02246;95137.52;;;;
2019/06/04 00:37:00;;;;;;;7.349999;6.649999;;;;;;;15.25;81.02246;95137.52;;;;
2019/06/04 00:38:01;;;;;;;7.349999;6.649999;;;;;;;15.25;81.02246;95137.52;;;;
2019/06/04 00:39:03;;;;;;;7.349999;6.649999;;;;;;;15.25;81.02246;95137.52;;;;
2019/06/04 00:40:05;;;;;;;7.349999;6.649999;;;;;;;15.25;81.02246;95137.52;;;;
2019/06/04 00:41:06;;;;;;;7.799999;7.099999;;;;;;;15.11;81.90234;95131.91;;;;
2019/06/04 00:42:07;;;;;;;7.799999;7.099999;;;;;;;15.11;81.90234;95131.91;;;;
2019/06/04 00:43:08;;;;;;;7.799999;7.099999;;;;;;;15.11;81.90234;95131.91;;;;
2019/06/04 00:44:09;;;;;;;7.799999;7.099999;;;;;;;15.11;81.90234;95131.91;;;;
2019/06/04 00:45:10;;;;;;;7.799999;7.099999;;;;;;;15.11;81.90234;95131.91;;;;
2019/06/04 00:46:11;;;;;;;7.799999;7.099999;;;;;;;15.11;81.90234;95131.91;;;;
2019/06/04 00:47:12;;;;;;;7.799999;7.099999;;;;;;;15.11;81.90234;95131.91;;;;
2019/06/04 00:48:13;;;;;;;7.799999;7.099999;;;;;;;15.11;81.90234;95131.91;;;;
2019/06/04 00:49:14;;;;;;;7.799999;7.099999;;;;;;;15.11;81.90234;95131.91;;;;
2019/06/04 00:50:15;;;;;;;7.799999;7.099999;;;;;;;15.11;81.90234;95131.91;;;;
2019/06/04 00:51:16;;;;;;;8.200002;7.400001;;;;;;;14.89;82.84375;95120.81;;;;
2019/06/04 00:52:18;;;;;;;8.200002;7.400001;;;;;;;14.89;82.84375;95120.81;;;;
2019/06/04 00:53:19;;;;;;;8.200002;7.400001;;;;;;;14.89;82.84375;95120.81;;;;
2019/06/04 00:54:20;;;;;;;8.200002;7.400001;;;;;;;14.89;82.84375;95120.81;;;;
2019/06/04 00:55:28;;;;;;;8.200002;7.400001;;;;;;;14.89;82.84375;95120.81;;;;
2019/06/04 00:56:29;;;;;;;8.200002;7.400001;;;;;;;14.89;82.84375;95120.81;;;;
2019/06/04 00:57:30;;;;;;;8.200002;7.400001;;;;;;;14.89;82.84375;95120.81;;;;
2019/06/04 00:58:32;;;;;;;8.200002;7.400001;;;;;;;14.89;82.84375;95120.81;;;;
2019/06/04 00:59:33;;;;;;;8.200002;7.400001;;;;;;;14.89;82.84375;95120.81;;;;
2019/06/04 01:00:35;;;;;;;8.200002;7.400001;;;;;;;14.89;82.84375;95120.81;;;;
2019/06/04 01:01:36;;;;;;;8.200002;7.400001;;;;;;;14.89;82.84375;95120.81;;;;
2019/06/04 01:02:37;;;;;;;6.799999;6.200001;;;;;;;14.75;83.87305;95113.67;;;;
2019/06/04 01:03:38;;;;;;;6.799999;6.200001;;;;;;;14.75;83.87305;95113.67;;;;
2019/06/04 01:04:39;;;;;;;6.799999;6.200001;;;;;;;14.75;83.87305;95113.67;;;;
2019/06/04 01:05:40;;;;;;;6.799999;6.200001;;;;;;;14.75;83.87305;95113.67;;;;
2019/06/04 01:06:42;;;;;;;6.799999;6.200001;;;;;;;14.75;83.87305;95113.67;;;;
2019/06/04 01:07:43;;;;;;;6.799999;6.200001;;;;;;;14.75;83.87305;95113.67;;;;
2019/06/04 01:08:44;;;;;;;6.799999;6.200001;;;;;;;14.75;83.87305;95113.67;;;;
2019/06/04 01:09:45;;;;;;;6.799999;6.200001;;;;;;;14.75;83.87305;95113.67;;;;
2019/06/04 01:10:46;;;;;;;6.799999;6.200001;;;;;;;14.75;83.87305;95113.67;;;;
2019/06/04 01:11:47;;;;;;;6.799999;6.200001;;;;;;;14.75;83.87305;95113.67;;;;
2019/06/04 01:12:48;;;;;;;6.9;6.3;;;;;;;14.55;84.39551;95100.97;;;;
2019/06/04 01:13:50;;;;;;;6.9;6.3;;;;;;;14.55;84.39551;95100.97;;;;
2019/06/04 01:14:51;;;;;;;6.9;6.3;;;;;;;14.55;84.39551;95100.97;;;;
2019/06/04 01:15:52;;;;;;;6.9;6.3;;;;;;;14.55;84.39551;95100.97;;;;
2019/06/04 01:16:53;;;;;;;6.9;6.3;;;;;;;14.55;84.39551;95100.97;;;;
2019/06/04 01:17:54;;;;;;;6.9;6.3;;;;;;;14.55;84.39551;95100.97;;;;
2019/06/04 01:18:55;;;;;;;6.9;6.3;;;;;;;14.55;84.39551;95100.97;;;;
2019/06/04 01:19:56;;;;;;;6.9;6.3;;;;;;;14.55;84.39551;95100.97;;;;
2019/06/04 01:20:57;;;;;;;6.9;6.3;;;;;;;14.55;84.39551;95100.97;;;;
2019/06/04 01:21:58;;;;;;;6.9;6.3;;;;;;;14.55;84.39551;95100.97;;;;
2019/06/04 01:23:00;;;;;;;6.9;6.3;;;;;;;14.55;84.39551;95100.97;;;;
2019/06/04 01:24:01;;;;;;;8.099999;7.4;;;;;;;14.38;84.97656;95110.78;;;;
2019/06/04 01:25:02;;;;;;;8.099999;7.4;;;;;;;14.38;84.97656;95110.78;;;;
2019/06/04 01:26:04;;;;;;;8.099999;7.4;;;;;;;14.38;84.97656;95110.78;;;;
2019/06/04 01:27:05;;;;;;;8.099999;7.4;;;;;;;14.38;84.97656;95110.78;;;;
2019/06/04 01:28:06;;;;;;;8.099999;7.4;;;;;;;14.38;84.97656;95110.78;;;;
2019/06/04 01:29:07;;;;;;;8.099999;7.4;;;;;;;14.38;84.97656;95110.78;;;;
2019/06/04 01:30:08;;;;;;;8.099999;7.4;;;;;;;14.38;84.97656;95110.78;;;;
2019/06/04 01:31:09;;;;;;;8.099999;7.4;;;;;;;14.38;84.97656;95110.78;;;;
2019/06/04 01:32:10;;;;;;;8.099999;7.4;;;;;;;14.38;84.97656;95110.78;;;;
2019/06/04 01:33:11;;;;;;;8.099999;7.4;;;;;;;14.38;84.97656;95110.78;;;;
2019/06/04 01:34:12;;;;;;;8.099999;7.4;;;;;;;14.38;84.97656;95110.78;;;;
2019/06/04 01:35:14;;;;;;;8.099999;7.4;;;;;;;14.38;84.97656;95110.78;;;;
2019/06/04 01:36:15;;;;;;;8.099999;7.4;;;;;;;14.38;84.97656;95110.78;;;;
2019/06/04 01:37:16;;;;;;;8.099999;7.4;;;;;;;14.38;84.97656;95110.78;;;;
2019/06/04 01:38:17;;;;;;;8.099999;7.4;;;;;;;14.38;84.97656;95110.78;;;;
2019/06/04 01:39:18;;;;;;;8.099999;7.4;;;;;;;14.38;84.97656;95110.78;;;;
2019/06/04 01:40:19;;;;;;;8.099999;7.4;;;;;;;14.38;84.97656;95110.78;;;;
2019/06/04 01:41:20;;;;;;;8.099999;7.4;;;;;;;14.38;84.97656;95110.78;;;;
2019/06/04 01:42:21;;;;;;;8.099999;7.4;;;;;;;14.38;84.97656;95110.78;;;;
2019/06/04 01:43:22;;;;;;;8.099999;7.4;;;;;;;14.38;84.97656;95110.78;;;;
2019/06/04 01:44:23;;;;;;;8.4;7.7;;;;;;;14.05;86.54883;95104.58;;;;
2019/06/04 01:45:24;;;;;;;8.4;7.7;;;;;;;14.05;86.54883;95104.58;;;;
2019/06/04 01:46:25;;;;;;;8.4;7.7;;;;;;;14.05;86.54883;95104.58;;;;
2019/06/04 01:47:27;;;;;;;8.4;7.7;;;;;;;14.05;86.54883;95104.58;;;;
2019/06/04 01:48:28;;;;;;;8.4;7.7;;;;;;;14.05;86.54883;95104.58;;;;
2019/06/04 01:49:29;;;;;;;8.4;7.7;;;;;;;14.05;86.54883;95104.58;;;;
2019/06/04 01:50:30;;;;;;;8.4;7.7;;;;;;;14.05;86.54883;95104.58;;;;
2019/06/04 01:51:32;;;;;;;8.4;7.7;;;;;;;14.05;86.54883;95104.58;;;;
2019/06/04 01:52:33;;;;;;;8.4;7.7;;;;;;;14.05;86.54883;95104.58;;;;
2019/06/04 01:53:34;;;;;;;8.4;7.7;;;;;;;14.05;86.54883;95104.58;;;;
2019/06/04 01:54:35;;;;;;;8.4;7.7;;;;;;;14.05;86.54883;95104.58;;;;
2019/06/04 01:55:36;;;;;;;8.299999;7.5;;;;;;;13.85;87.15234;95089.09;;;;
2019/06/04 01:56:37;;;;;;;8.299999;7.5;;;;;;;13.85;87.15234;95089.09;;;;
2019/06/04 01:57:38;;;;;;;8.299999;7.5;;;;;;;13.85;87.15234;95089.09;;;;
2019/06/04 01:58:39;;;;;;;8.299999;7.5;;;;;;;13.85;87.15234;95089.09;;;;
2019/06/04 01:59:40;;;;;;;8.299999;7.5;;;;;;;13.85;87.15234;95089.09;;;;
2019/06/04 02:00:41;;;;;;;8.299999;7.5;;;;;;;13.85;87.15234;95089.09;;;;
2019/06/04 02:01:43;;;;;;;8.299999;7.5;;;;;;;13.85;87.15234;95089.09;;;;
2019/06/04 02:02:44;;;;;;;8.299999;7.5;;;;;;;13.85;87.15234;95089.09;;;;
2019/06/04 02:03:45;;;;;;;8.299999;7.5;;;;;;;13.85;87.15234;95089.09;;;;
2019/06/04 02:04:46;;;;;;;8.299999;7.5;;;;;;;13.85;87.15234;95089.09;;;;
2019/06/04 02:05:47;;;;;;;8.349999;7.65;;;;;;;13.74;87.88184;95085.23;;;;
2019/06/04 02:06:48;;;;;;;8.349999;7.65;;;;;;;13.74;87.88184;95085.23;;;;
2019/06/04 02:07:49;;;;;;;8.349999;7.65;;;;;;;13.74;87.88184;95085.23;;;;
2019/06/04 02:08:50;;;;;;;8.349999;7.65;;;;;;;13.74;87.88184;95085.23;;;;
2019/06/04 02:09:51;;;;;;;8.349999;7.65;;;;;;;13.74;87.88184;95085.23;;;;
2019/06/04 02:10:52;;;;;;;8.349999;7.65;;;;;;;13.74;87.88184;95085.23;;;;
2019/06/04 02:11:54;;;;;;;8.349999;7.65;;;;;;;13.74;87.88184;95085.23;;;;
2019/06/04 02:12:55;;;;;;;8.349999;7.65;;;;;;;13.74;87.88184;95085.23;;;;
2019/06/04 02:13:56;;;;;;;8.349999;7.65;;;;;;;13.74;87.88184;95085.23;;;;
2019/06/04 02:14:57;;;;;;;8.349999;7.65;;;;;;;13.74;87.88184;95085.23;;;;
2019/06/04 02:15:58;;;;;;;7.349999;6.700001;;;;;;;13.54;88.47559;95073.16;;;;
2019/06/04 02:16:59;;;;;;;7.349999;6.700001;;;;;;;13.54;88.47559;95073.16;;;;
2019/06/04 02:18:00;;;;;;;7.349999;6.700001;;;;;;;13.54;88.47559;95073.16;;;;
2019/06/04 02:19:02;;;;;;;7.349999;6.700001;;;;;;;13.54;88.47559;95073.16;;;;
2019/06/04 02:20:03;;;;;;;7.349999;6.700001;;;;;;;13.54;88.47559;95073.16;;;;
2019/06/04 02:21:04;;;;;;;7.349999;6.700001;;;;;;;13.54;88.47559;95073.16;;;;
2019/06/04 02:22:05;;;;;;;7.349999;6.700001;;;;;;;13.54;88.47559;95073.16;;;;
2019/06/04 02:23:06;;;;;;;7.349999;6.700001;;;;;;;13.54;88.47559;95073.16;;;;
2019/06/04 02:24:07;;;;;;;7.349999;6.700001;;;;;;;13.54;88.47559;95073.16;;;;
2019/06/04 02:25:08;;;;;;;7.349999;6.700001;;;;;;;13.54;88.47559;95073.16;;;;
2019/06/04 02:26:10;;;;;;;7.349999;6.700001;;;;;;;13.54;88.47559;95073.16;;;;
2019/06/04 02:27:11;;;;;;;7.75;7.05;;;;;;;13.46;88.96289;95064.65;;;;
2019/06/04 02:28:12;;;;;;;7.75;7.05;;;;;;;13.46;88.96289;95064.65;;;;
2019/06/04 02:29:13;;;;;;;7.75;7.05;;;;;;;13.46;88.96289;95064.65;;;;
2019/06/04 02:30:14;;;;;;;7.75;7.05;;;;;;;13.46;88.96289;95064.65;;;;
2019/06/04 02:31:16;;;;;;;7.75;7.05;;;;;;;13.46;88.96289;95064.65;;;;
2019/06/04 02:32:17;;;;;;;7.75;7.05;;;;;;;13.46;88.96289;95064.65;;;;
2019/06/04 02:33:18;;;;;;;7.75;7.05;;;;;;;13.46;88.96289;95064.65;;;;
2019/06/04 02:34:19;;;;;;;7.75;7.05;;;;;;;13.46;88.96289;95064.65;;;;
2019/06/04 02:35:20;;;;;;;7.75;7.05;;;;;;;13.46;88.96289;95064.65;;;;
2019/06/04 02:36:21;;;;;;;7.75;7.05;;;;;;;13.46;88.96289;95064.65;;;;
2019/06/04 02:37:22;;;;;;;7.25;6.700001;;;;;;;13.35;89.53125;95065.11;;;;
2019/06/04 02:38:23;;;;;;;7.25;6.700001;;;;;;;13.35;89.53125;95065.11;;;;
2019/06/04 02:39:24;;;;;;;7.25;6.700001;;;;;;;13.35;89.53125;95065.11;;;;
2019/06/04 02:40:26;;;;;;;7.25;6.700001;;;;;;;13.35;89.53125;95065.11;;;;
2019/06/04 02:41:45;;;;;;;7.25;6.700001;;;;;;;13.35;89.53125;95065.11;;;;
2019/06/04 02:42:46;;;;;;;7.25;6.700001;;;;;;;13.35;89.53125;95065.11;;;;
2019/06/04 02:43:47;;;;;;;7.25;6.700001;;;;;;;13.35;89.53125;95065.11;;;;
2019/06/04 02:44:48;;;;;;;7.25;6.700001;;;;;;;13.35;89.53125;95065.11;;;;
2019/06/04 02:45:50;;;;;;;7.25;6.700001;;;;;;;13.35;89.53125;95065.11;;;;
2019/06/04 02:46:51;;;;;;;7.25;6.700001;;;;;;;13.35;89.53125;95065.11;;;;
2019/06/04 02:47:52;;;;;;;7.55;6.799999;;;;;;;13.33;90.08496;95050.19;;;;
2019/06/04 02:48:53;;;;;;;7.55;6.799999;;;;;;;13.33;90.08496;95050.19;;;;
2019/06/04 02:49:54;;;;;;;7.55;6.799999;;;;;;;13.33;90.08496;95050.19;;;;
2019/06/04 02:50:56;;;;;;;7.55;6.799999;;;;;;;13.33;90.08496;95050.19;;;;
2019/06/04 02:51:57;;;;;;;7.55;6.799999;;;;;;;13.33;90.08496;95050.19;;;;
2019/06/04 02:52:59;;;;;;;7.55;6.799999;;;;;;;13.33;90.08496;95050.19;;;;
2019/06/04 02:54:00;;;;;;;7.55;6.799999;;;;;;;13.33;90.08496;95050.19;;;;
2019/06/04 02:55:01;;;;;;;7.55;6.799999;;;;;;;13.33;90.08496;95050.19;;;;
2019/06/04 02:56:03;;;;;;;7.55;6.799999;;;;;;;13.33;90.08496;95050.19;;;;
2019/06/04 02:57:04;;;;;;;7.55;6.799999;;;;;;;13.33;90.08496;95050.19;;;;
2019/06/04 02:58:05;;;;;;;7.55;6.799999;;;;;;;13.33;90.08496;95050.19;;;;
2019/06/04 02:59:06;;;;;;;6.55;6.05;;;;;;;13.22;90.47949;95049.25;;;;
2019/06/04 03:00:08;;;;;;;6.55;6.05;;;;;;;13.22;90.47949;95049.25;;;;
2019/06/04 03:01:09;;;;;;;6.55;6.05;;;;;;;13.22;90.47949;95049.25;;;;
2019/06/04 03:02:10;;;;;;;6.55;6.05;;;;;;;13.22;90.47949;95049.25;;;;
2019/06/04 03:03:11;;;;;;;6.55;6.05;;;;;;;13.22;90.47949;95049.25;;;;
2019/06/04 03:04:12;;;;;;;6.55;6.05;;;;;;;13.22;90.47949;95049.25;;;;
2019/06/04 03:05:13;;;;;;;6.55;6.05;;;;;;;13.22;90.47949;95049.25;;;;
2019/06/04 03:06:14;;;;;;;6.55;6.05;;;;;;;13.22;90.47949;95049.25;;;;
2019/06/04 03:07:15;;;;;;;6.55;6.05;;;;;;;13.22;90.47949;95049.25;;;;
2019/06/04 03:08:16;;;;;;;6.55;6.05;;;;;;;13.22;90.47949;95049.25;;;;
2019/06/04 03:09:17;;;;;;;6.849999;6.299999;;;;;;;13.2;90.91504;95046.95;;;;
2019/06/04 03:10:18;;;;;;;6.849999;6.299999;;;;;;;13.2;90.91504;95046.95;;;;
2019/06/04 03:11:20;;;;;;;6.849999;6.299999;;;;;;;13.2;90.91504;95046.95;;;;
2019/06/04 03:12:21;;;;;;;6.849999;6.299999;;;;;;;13.2;90.91504;95046.95;;;;
2019/06/04 03:13:22;;;;;;;6.849999;6.299999;;;;;;;13.2;90.91504;95046.95;;;;
2019/06/04 03:14:23;;;;;;;6.849999;6.299999;;;;;;;13.2;90.91504;95046.95;;;;
2019/06/04 03:15:24;;;;;;;6.849999;6.299999;;;;;;;13.2;90.91504;95046.95;;;;
2019/06/04 03:16:25;;;;;;;6.849999;6.299999;;;;;;;13.2;90.91504;95046.95;;;;
2019/06/04 03:17:26;;;;;;;6.849999;6.299999;;;;;;;13.2;90.91504;95046.95;;;;
2019/06/04 03:18:27;;;;;;;6.849999;6.299999;;;;;;;13.2;90.91504;95046.95;;;;
2019/06/04 03:19:28;;;;;;;6.8;6.050001;;;;;;;13.11;91.17383;95042.14;;;;
2019/06/04 03:20:29;;;;;;;6.8;6.050001;;;;;;;13.11;91.17383;95042.14;;;;
2019/06/04 03:21:30;;;;;;;6.8;6.050001;;;;;;;13.11;91.17383;95042.14;;;;
2019/06/04 03:22:32;;;;;;;6.8;6.050001;;;;;;;13.11;91.17383;95042.14;;;;
2019/06/04 03:23:33;;;;;;;6.8;6.050001;;;;;;;13.11;91.17383;95042.14;;;;
2019/06/04 03:24:34;;;;;;;6.8;6.050001;;;;;;;13.11;91.17383;95042.14;;;;
2019/06/04 03:25:35;;;;;;;6.8;6.050001;;;;;;;13.11;91.17383;95042.14;;;;
2019/06/04 03:26:36;;;;;;;6.8;6.050001;;;;;;;13.11;91.17383;95042.14;;;;
2019/06/04 03:27:37;;;;;;;6.8;6.050001;;;;;;;13.11;91.17383;95042.14;;;;
2019/06/04 03:28:38;;;;;;;6.8;6.050001;;;;;;;13.11;91.17383;95042.14;;;;
2019/06/04 03:29:39;;;;;;;6.8;6.050001;;;;;;;13.11;91.17383;95042.14;;;;
2019/06/04 03:30:40;;;;;;;6.7;6.15;;;;;;;13.11;91.45215;95033.17;;;;
2019/06/04 03:31:41;;;;;;;6.7;6.15;;;;;;;13.11;91.45215;95033.17;;;;
2019/06/04 03:32:42;;;;;;;6.7;6.15;;;;;;;13.11;91.45215;95033.17;;;;
2019/06/04 03:33:43;;;;;;;6.7;6.15;;;;;;;13.11;91.45215;95033.17;;;;
2019/06/04 03:34:45;;;;;;;6.7;6.15;;;;;;;13.11;91.45215;95033.17;;;;
2019/06/04 03:35:46;;;;;;;6.7;6.15;;;;;;;13.11;91.45215;95033.17;;;;
2019/06/04 03:36:47;;;;;;;6.7;6.15;;;;;;;13.11;91.45215;95033.17;;;;
2019/06/04 03:37:48;;;;;;;6.7;6.15;;;;;;;13.11;91.45215;95033.17;;;;
2019/06/04 03:38:49;;;;;;;6.7;6.15;;;;;;;13.11;91.45215;95033.17;;;;
2019/06/04 03:39:50;;;;;;;6.7;6.15;;;;;;;13.11;91.45215;95033.17;;;;
2019/06/04 03:40:51;;;;;;;7.450001;6.749999;;;;;;;13.06;91.78516;95041.13;;;;
2019/06/04 03:41:52;;;;;;;7.450001;6.749999;;;;;;;13.06;91.78516;95041.13;;;;
2019/06/04 03:42:53;;;;;;;7.450001;6.749999;;;;;;;13.06;91.78516;95041.13;;;;
2019/06/04 03:43:54;;;;;;;7.450001;6.749999;;;;;;;13.06;91.78516;95041.13;;;;
2019/06/04 03:44:55;;;;;;;7.450001;6.749999;;;;;;;13.06;91.78516;95041.13;;;;
2019/06/04 03:45:56;;;;;;;7.450001;6.749999;;;;;;;13.06;91.78516;95041.13;;;;
2019/06/04 03:46:57;;;;;;;7.450001;6.749999;;;;;;;13.06;91.78516;95041.13;;;;
2019/06/04 03:47:58;;;;;;;7.450001;6.749999;;;;;;;13.06;91.78516;95041.13;;;;
2019/06/04 03:48:59;;;;;;;7.450001;6.749999;;;;;;;13.06;91.78516;95041.13;;;;
2019/06/04 03:50:00;;;;;;;7.450001;6.749999;;;;;;;13.06;91.78516;95041.13;;;;
2019/06/04 03:51:02;;;;;;;7.450001;6.749999;;;;;;;13.06;91.78516;95041.13;;;;
2019/06/04 03:52:03;;;;;;;7.499999;6.749999;;;;;;;13.13;91.96973;95048.24;;;;
2019/06/04 03:53:04;;;;;;;7.499999;6.749999;;;;;;;13.13;91.96973;95048.24;;;;
2019/06/04 03:54:05;;;;;;;7.499999;6.749999;;;;;;;13.13;91.96973;95048.24;;;;
2019/06/04 03:55:06;;;;;;;7.499999;6.749999;;;;;;;13.13;91.96973;95048.24;;;;
2019/06/04 03:56:07;;;;;;;7.499999;6.749999;;;;;;;13.13;91.96973;95048.24;;;;
2019/06/04 03:57:08;;;;;;;7.499999;6.749999;;;;;;;13.13;91.96973;95048.24;;;;
2019/06/04 03:58:09;;;;;;;7.499999;6.749999;;;;;;;13.13;91.96973;95048.24;;;;
2019/06/04 03:59:10;;;;;;;7.499999;6.749999;;;;;;;13.13;91.96973;95048.24;;;;
2019/06/04 04:00:11;;;;;;;7.499999;6.749999;;;;;;;13.13;91.96973;95048.24;;;;
2019/06/04 04:01:12;;;;;;;7.499999;6.749999;;;;;;;13.13;91.96973;95048.24;;;;
2019/06/04 04:02:13;;;;;;;6.950001;6.25;;;;;;;13.15;92.18848;95056.78;;;;
2019/06/04 04:03:14;;;;;;;6.950001;6.25;;;;;;;13.15;92.18848;95056.78;;;;
2019/06/04 04:04:15;;;;;;;6.950001;6.25;;;;;;;13.15;92.18848;95056.78;;;;
2019/06/04 04:05:16;;;;;;;6.950001;6.25;;;;;;;13.15;92.18848;95056.78;;;;
2019/06/04 04:06:17;;;;;;;6.950001;6.25;;;;;;;13.15;92.18848;95056.78;;;;
2019/06/04 04:07:18;;;;;;;6.950001;6.25;;;;;;;13.15;92.18848;95056.78;;;;
2019/06/04 04:08:19;;;;;;;6.950001;6.25;;;;;;;13.15;92.18848;95056.78;;;;
2019/06/04 04:09:21;;;;;;;6.950001;6.25;;;;;;;13.15;92.18848;95056.78;;;;
2019/06/04 04:10:22;;;;;;;6.950001;6.25;;;;;;;13.15;92.18848;95056.78;;;;
2019/06/04 04:11:23;;;;;;;6.950001;6.25;;;;;;;13.15;92.18848;95056.78;;;;
2019/06/04 04:12:24;;;;;;;7;6.299999;;;;;;;13.28;92.4082;95051.48;;;;
2019/06/04 04:13:25;;;;;;;7;6.299999;;;;;;;13.28;92.4082;95051.48;;;;
2019/06/04 04:14:26;;;;;;;7;6.299999;;;;;;;13.28;92.4082;95051.48;;;;
2019/06/04 04:15:27;;;;;;;7;6.299999;;;;;;;13.28;92.4082;95051.48;;;;
2019/06/04 04:16:28;;;;;;;7;6.299999;;;;;;;13.28;92.4082;95051.48;;;;
2019/06/04 04:17:29;;;;;;;7;6.299999;;;;;;;13.28;92.4082;95051.48;;;;
2019/06/04 04:18:30;;;;;;;7;6.299999;;;;;;;13.28;92.4082;95051.48;;;;
2019/06/04 04:19:31;;;;;;;7;6.299999;;;;;;;13.28;92.4082;95051.48;;;;
2019/06/04 04:20:32;;;;;;;7;6.299999;;;;;;;13.28;92.4082;95051.48;;;;
2019/06/04 04:21:33;;;;;;;7;6.299999;;;;;;;13.28;92.4082;95051.48;;;;
2019/06/04 04:22:34;;;;;;;7;6.299999;;;;;;;13.28;92.4082;95051.48;;;;
2019/06/04 04:23:35;;;;;;;7.149999;6.349999;;;;;;;13.39;92.66797;95050.49;;;;
2019/06/04 04:24:36;;;;;;;7.149999;6.349999;;;;;;;13.39;92.66797;95050.49;;;;
2019/06/04 04:25:37;;;;;;;7.149999;6.349999;;;;;;;13.39;92.66797;95050.49;;;;
2019/06/04 04:26:38;;;;;;;7.149999;6.349999;;;;;;;13.39;92.66797;95050.49;;;;
2019/06/04 04:27:39;;;;;;;7.149999;6.349999;;;;;;;13.39;92.66797;95050.49;;;;
2019/06/04 04:28:41;;;;;;;7.149999;6.349999;;;;;;;13.39;92.66797;95050.49;;;;
2019/06/04 04:29:42;;;;;;;7.149999;6.349999;;;;;;;13.39;92.66797;95050.49;;;;
2019/06/04 04:30:43;;;;;;;7.149999;6.349999;;;;;;;13.39;92.66797;95050.49;;;;
2019/06/04 04:31:44;;;;;;;7.149999;6.349999;;;;;;;13.39;92.66797;95050.49;;;;
2019/06/04 04:32:45;;;;;;;7.149999;6.349999;;;;;;;13.39;92.66797;95050.49;;;;
2019/06/04 04:33:46;;;;;;;7.6;6.900001;;;;;;;13.62;92.83496;95049.19;;;;
2019/06/04 04:34:47;;;;;;;7.6;6.900001;;;;;;;13.62;92.83496;95049.19;;;;
2019/06/04 04:35:48;;;;;;;7.6;6.900001;;;;;;;13.62;92.83496;95049.19;;;;
2019/06/04 04:36:49;;;;;;;7.6;6.900001;;;;;;;13.62;92.83496;95049.19;;;;
2019/06/04 04:37:50;;;;;;;7.6;6.900001;;;;;;;13.62;92.83496;95049.19;;;;
2019/06/04 04:38:51;;;;;;;7.6;6.900001;;;;;;;13.62;92.83496;95049.19;;;;
2019/06/04 04:39:52;;;;;;;7.6;6.900001;;;;;;;13.62;92.83496;95049.19;;;;
2019/06/04 04:40:53;;;;;;;7.6;6.900001;;;;;;;13.62;92.83496;95049.19;;;;
2019/06/04 04:41:54;;;;;;;7.6;6.900001;;;;;;;13.62;92.83496;95049.19;;;;
2019/06/04 04:42:55;;;;;;;7.6;6.900001;;;;;;;13.62;92.83496;95049.19;;;;
2019/06/04 04:43:56;;;;;;;7.6;6.900001;;;;;;;13.62;92.83496;95049.19;;;;
2019/06/04 04:44:58;;;;;;;6.85;6.250001;;;;;;;13.83;93.125;95056.37;;;;
2019/06/04 04:45:59;;;;;;;6.85;6.250001;;;;;;;13.83;93.125;95056.37;;;;
2019/06/04 04:47:00;;;;;;;6.85;6.250001;;;;;;;13.83;93.125;95056.37;;;;
2019/06/04 04:48:01;;;;;;;6.85;6.250001;;;;;;;13.83;93.125;95056.37;;;;
2019/06/04 04:49:02;;;;;;;6.85;6.250001;;;;;;;13.83;93.125;95056.37;;;;
2019/06/04 04:50:03;;;;;;;6.85;6.250001;;;;;;;13.83;93.125;95056.37;;;;
2019/06/04 04:51:04;;;;;;;6.85;6.250001;;;;;;;13.83;93.125;95056.37;;;;
2019/06/04 04:52:05;;;;;;;6.85;6.250001;;;;;;;13.83;93.125;95056.37;;;;
2019/06/04 04:53:06;;;;;;;6.85;6.250001;;;;;;;13.83;93.125;95056.37;;;;
2019/06/04 04:54:07;;;;;;;6.85;6.250001;;;;;;;13.83;93.125;95056.37;;;;
2019/06/04 04:55:08;;;;;;;6.55;5.95;;;;;;;14.12;93.16504;95060.36;;;;
2019/06/04 04:56:10;;;;;;;6.55;5.95;;;;;;;14.12;93.16504;95060.36;;;;
2019/06/04 04:57:10;;;;;;;6.55;5.95;;;;;;;14.12;93.16504;95060.36;;;;
2019/06/04 04:58:12;;;;;;;6.55;5.95;;;;;;;14.12;93.16504;95060.36;;;;
2019/06/04 04:59:13;;;;;;;6.55;5.95;;;;;;;14.12;93.16504;95060.36;;;;
2019/06/04 05:00:14;;;;;;;6.55;5.95;;;;;;;14.12;93.16504;95060.36;;;;
2019/06/04 05:01:33;;;;;;;6.55;5.95;;;;;;;14.12;93.16504;95060.36;;;;
2019/06/04 05:02:34;;;;;;;6.55;5.95;;;;;;;14.12;93.16504;95060.36;;;;
2019/06/04 05:03:35;;;;;;;6.55;5.95;;;;;;;14.12;93.16504;95060.36;;;;
2019/06/04 05:04:36;;;;;;;6.55;5.95;;;;;;;14.12;93.16504;95060.36;;;;
2019/06/04 05:05:37;;;;;;;6.7;6;;;;;;;14.48;93.06738;95070.09;;;;
2019/06/04 05:06:38;;;;;;;6.7;6;;;;;;;14.48;93.06738;95070.09;;;;
2019/06/04 05:07:40;;;;;;;6.7;6;;;;;;;14.48;93.06738;95070.09;;;;
2019/06/04 05:08:41;;;;;;;6.7;6;;;;;;;14.48;93.06738;95070.09;;;;
2019/06/04 05:09:42;;;;;;;6.7;6;;;;;;;14.48;93.06738;95070.09;;;;
2019/06/04 05:10:43;;;;;;;6.7;6;;;;;;;14.48;93.06738;95070.09;;;;
2019/06/04 05:11:44;;;;;;;6.7;6;;;;;;;14.48;93.06738;95070.09;;;;
2019/06/04 05:12:45;;;;;;;6.7;6;;;;;;;14.48;93.06738;95070.09;;;;
2019/06/04 05:13:46;;;;;;;6.7;6;;;;;;;14.48;93.06738;95070.09;;;;
2019/06/04 05:14:48;;;;;;;6.7;6;;;;;;;14.48;93.06738;95070.09;;;;
2019/06/04 05:15:49;;;;;;;6.7;6;;;;;;;14.48;93.06738;95070.09;;;;
2019/06/04 05:16:50;;;;;;;5.55;5.05;;;;;;;15.06;92.68457;95062.93;;;;
2019/06/04 05:17:51;;;;;;;5.55;5.05;;;;;;;15.06;92.68457;95062.93;;;;
2019/06/04 05:18:53;;;;;;;5.55;5.05;;;;;;;15.06;92.68457;95062.93;;;;
2019/06/04 05:19:55;;;;;;;5.55;5.05;;;;;;;15.06;92.68457;95062.93;;;;
2019/06/04 05:20:56;;;;;;;5.55;5.05;;;;;;;15.06;92.68457;95062.93;;;;
2019/06/04 05:21:57;;;;;;;5.55;5.05;;;;;;;15.06;92.68457;95062.93;;;;
2019/06/04 05:22:58;;;;;;;5.55;5.05;;;;;;;15.06;92.68457;95062.93;;;;
2019/06/04 05:23:59;;;;;;;5.55;5.05;;;;;;;15.06;92.68457;95062.93;;;;
2019/06/04 05:25:01;;;;;;;5.55;5.05;;;;;;;15.06;92.68457;95062.93;;;;
2019/06/04 05:26:02;;;;;;;5.55;5.05;;;;;;;15.06;92.68457;95062.93;;;;
2019/06/04 05:27:03;;;;;;;4.45;4.149999;;;;;;;15.67;92.08105;95071.45;;;;
2019/06/04 05:28:04;;;;;;;4.45;4.149999;;;;;;;15.67;92.08105;95071.45;;;;
2019/06/04 05:29:05;;;;;;;4.45;4.149999;;;;;;;15.67;92.08105;95071.45;;;;
2019/06/04 05:30:06;;;;;;;4.45;4.149999;;;;;;;15.67;92.08105;95071.45;;;;